sensor_id;sensor_type;location;lat;lon;timestamp;pressure;altitude;pressure_sealevel;temperature;humidity
74936;BME280;63501;55.570;37.488;2023-07-09T00:02:12;98703.59;;;15.32;73.14
74936;BME280;63501;55.570;37.488;2023-07-09T00:04:41;98704.78;;;15.31;73.25
74936;BME280;63501;55.570;37.488;2023-07-09T00:09:48;98707.25;;;15.29;73.35
74936;BME280;63501;55.570;37.488;2023-07-09T00:12:17;98700.44;;;15.30;73.10
74936;BME280;63501;55.570;37.488;2023-07-09T00:14:44;98704.47;;;15.29;73.07
74936;BME280;63501;55.570;37.488;2023-07-09T00:17:15;98695.00;;;15.26;73.49
74936;BME280;63501;55.570;37.488;2023-07-09T00:19:47;98698.22;;;15.25;73.28
74936;BME280;63501;55.570;37.488;2023-07-09T00:22:15;98687.19;;;15.21;73.48
74936;BME280;63501;55.570;37.488;2023-07-09T00:24:47;98693.63;;;15.18;73.50
74936;BME280;63501;55.570;37.488;2023-07-09T00:27:18;98682.94;;;15.17;73.66
74936;BME280;63501;55.570;37.488;2023-07-09T00:29:46;98682.56;;;15.15;73.37
74936;BME280;63501;55.570;37.488;2023-07-09T00:32:13;98687.38;;;15.14;72.95
74936;BME280;63501;55.570;37.488;2023-07-09T00:34:42;98685.03;;;15.13;73.39
74936;BME280;63501;55.570;37.488;2023-07-09T00:37:16;98680.69;;;15.12;73.54
74936;BME280;63501;55.570;37.488;2023-07-09T00:39:44;98681.81;;;15.14;72.82
74936;BME280;63501;55.570;37.488;2023-07-09T00:42:13;98669.88;;;15.14;72.83
74936;BME280;63501;55.570;37.488;2023-07-09T00:44:45;98668.66;;;15.15;73.14
74936;BME280;63501;55.570;37.488;2023-07-09T00:47:22;98658.66;;;15.17;73.21
74936;BME280;63501;55.570;37.488;2023-07-09T00:49:55;98659.44;;;15.18;72.67
74936;BME280;63501;55.570;37.488;2023-07-09T00:52:31;98658.97;;;15.19;72.83
74936;BME280;63501;55.570;37.488;2023-07-09T00:55:04;98657.75;;;15.20;73.13
74936;BME280;63501;55.570;37.488;2023-07-09T00:57:34;98656.88;;;15.23;73.00
74936;BME280;63501;55.570;37.488;2023-07-09T01:00:07;98650.09;;;15.24;72.80
74936;BME280;63501;55.570;37.488;2023-07-09T01:02:39;98652.41;;;15.26;72.48
74936;BME280;63501;55.570;37.488;2023-07-09T01:05:09;98649.53;;;15.29;72.69
74936;BME280;63501;55.570;37.488;2023-07-09T01:07:39;98644.31;;;15.31;72.02
74936;BME280;63501;55.570;37.488;2023-07-09T01:10:07;98648.66;;;15.32;71.60
74936;BME280;63501;55.570;37.488;2023-07-09T01:12:34;98643.88;;;15.33;71.91
74936;BME280;63501;55.570;37.488;2023-07-09T01:15:01;98647.91;;;15.32;72.04
74936;BME280;63501;55.570;37.488;2023-07-09T01:17:31;98647.53;;;15.30;72.32
74936;BME280;63501;55.570;37.488;2023-07-09T01:19:58;98637.63;;;15.29;71.97
74936;BME280;63501;55.570;37.488;2023-07-09T01:22:27;98652.00;;;15.27;72.44
74936;BME280;63501;55.570;37.488;2023-07-09T01:24:58;98648.44;;;15.27;72.19
74936;BME280;63501;55.570;37.488;2023-07-09T01:27:36;98640.88;;;15.27;72.47
74936;BME280;63501;55.570;37.488;2023-07-09T01:30:06;98645.19;;;15.28;72.20
74936;BME280;63501;55.570;37.488;2023-07-09T01:32:34;98651.22;;;15.27;72.31
74936;BME280;63501;55.570;37.488;2023-07-09T01:35:05;98636.94;;;15.25;72.50
74936;BME280;63501;55.570;37.488;2023-07-09T01:37:36;98644.06;;;15.26;72.24
74936;BME280;63501;55.570;37.488;2023-07-09T01:40:06;98639.72;;;15.25;72.42
74936;BME280;63501;55.570;37.488;2023-07-09T01:42:35;98640.97;;;15.24;72.51
74936;BME280;63501;55.570;37.488;2023-07-09T01:45:05;98644.53;;;15.24;72.34
74936;BME280;63501;55.570;37.488;2023-07-09T01:47:33;98640.97;;;15.24;72.28
74936;BME280;63501;55.570;37.488;2023-07-09T01:50:00;98638.16;;;15.24;72.66
74936;BME280;63501;55.570;37.488;2023-07-09T01:52:31;98631.38;;;15.25;72.11
74936;BME280;63501;55.570;37.488;2023-07-09T01:55:01;98640.09;;;15.27;72.52
74936;BME280;63501;55.570;37.488;2023-07-09T01:57:31;98642.88;;;15.27;72.83
74936;BME280;63501;55.570;37.488;2023-07-09T02:00:02;98640.88;;;15.27;72.58
74936;BME280;63501;55.570;37.488;2023-07-09T02:02:31;98636.94;;;15.25;72.36
74936;BME280;63501;55.570;37.488;2023-07-09T02:04:59;98637.84;;;15.22;72.83
74936;BME280;63501;55.570;37.488;2023-07-09T02:07:26;98636.28;;;15.21;72.57
74936;BME280;63501;55.570;37.488;2023-07-09T02:09:54;98639.41;;;15.23;73.22
74936;BME280;63501;55.570;37.488;2023-07-09T02:12:22;98637.31;;;15.27;72.67
74936;BME280;63501;55.570;37.488;2023-07-09T02:14:49;98637.63;;;15.29;72.61
74936;BME280;63501;55.570;37.488;2023-07-09T02:17:17;98635.94;;;15.31;72.65
74936;BME280;63501;55.570;37.488;2023-07-09T02:19:44;98634.63;;;15.36;72.83
74936;BME280;63501;55.570;37.488;2023-07-09T02:22:12;98633.28;;;15.41;72.97
74936;BME280;63501;55.570;37.488;2023-07-09T02:24:39;98625.63;;;15.45;72.48
74936;BME280;63501;55.570;37.488;2023-07-09T02:27:07;98634.66;;;15.49;72.70
74936;BME280;63501;55.570;37.488;2023-07-09T02:29:37;98637.00;;;15.50;72.73
74936;BME280;63501;55.570;37.488;2023-07-09T02:32:05;98630.97;;;15.52;72.37
74936;BME280;63501;55.570;37.488;2023-07-09T02:34:32;98631.75;;;15.52;72.48
74936;BME280;63501;55.570;37.488;2023-07-09T02:37:01;98622.94;;;15.54;72.73
74936;BME280;63501;55.570;37.488;2023-07-09T02:39:28;98629.63;;;15.56;72.39
74936;BME280;63501;55.570;37.488;2023-07-09T02:41:55;98632.75;;;15.58;72.59
74936;BME280;63501;55.570;37.488;2023-07-09T02:44:22;98627.88;;;15.63;72.28
74936;BME280;63501;55.570;37.488;2023-07-09T02:46:50;98620.19;;;15.67;72.47
74936;BME280;63501;55.570;37.488;2023-07-09T02:49:18;98619.66;;;15.72;72.34
74936;BME280;63501;55.570;37.488;2023-07-09T02:51:45;98624.22;;;15.78;72.48
74936;BME280;63501;55.570;37.488;2023-07-09T02:54:12;98620.53;;;15.81;72.36
74936;BME280;63501;55.570;37.488;2023-07-09T02:56:39;98624.44;;;15.84;72.07
74936;BME280;63501;55.570;37.488;2023-07-09T02:59:06;98625.44;;;15.90;72.06
74936;BME280;63501;55.570;37.488;2023-07-09T03:01:33;98627.97;;;15.97;71.59
74936;BME280;63501;55.570;37.488;2023-07-09T03:04:03;98628.97;;;16.03;71.78
74936;BME280;63501;55.570;37.488;2023-07-09T03:06:31;98624.06;;;16.07;71.36
74936;BME280;63501;55.570;37.488;2023-07-09T03:08:59;98620.72;;;16.12;71.35
74936;BME280;63501;55.570;37.488;2023-07-09T03:11:28;98619.59;;;16.23;70.99
74936;BME280;63501;55.570;37.488;2023-07-09T03:13:57;98614.28;;;16.37;70.80
74936;BME280;63501;55.570;37.488;2023-07-09T03:16:26;98618.94;;;16.53;70.67
74936;BME280;63501;55.570;37.488;2023-07-09T03:18:53;98613.97;;;16.70;70.13
74936;BME280;63501;55.570;37.488;2023-07-09T03:21:22;98608.34;;;16.83;69.14
74936;BME280;63501;55.570;37.488;2023-07-09T03:23:50;98599.16;;;16.95;68.84
74936;BME280;63501;55.570;37.488;2023-07-09T03:26:17;98597.03;;;17.08;68.17
74936;BME280;63501;55.570;37.488;2023-07-09T03:28:44;98593.69;;;17.23;67.60
74936;BME280;63501;55.570;37.488;2023-07-09T03:31:11;98605.91;;;17.38;67.21
74936;BME280;63501;55.570;37.488;2023-07-09T03:33:38;98604.13;;;17.53;66.48
74936;BME280;63501;55.570;37.488;2023-07-09T03:36:06;98608.22;;;17.70;66.37
74936;BME280;63501;55.570;37.488;2023-07-09T03:38:35;98607.53;;;17.88;66.28
74936;BME280;63501;55.570;37.488;2023-07-09T03:41:02;98608.69;;;18.09;65.37
74936;BME280;63501;55.570;37.488;2023-07-09T03:43:29;98607.03;;;18.30;64.23
74936;BME280;63501;55.570;37.488;2023-07-09T03:45:56;98608.59;;;18.49;63.18
74936;BME280;63501;55.570;37.488;2023-07-09T03:48:23;98605.03;;;18.67;63.80
74936;BME280;63501;55.570;37.488;2023-07-09T03:50:50;98607.53;;;18.84;63.24
74936;BME280;63501;55.570;37.488;2023-07-09T03:53:17;98601.31;;;18.98;62.72
74936;BME280;63501;55.570;37.488;2023-07-09T03:55:51;98597.84;;;19.12;61.84
74936;BME280;63501;55.570;37.488;2023-07-09T03:58:19;98595.16;;;19.27;60.99
74936;BME280;63501;55.570;37.488;2023-07-09T04:00:46;98589.38;;;19.40;59.95
74936;BME280;63501;55.570;37.488;2023-07-09T04:03:14;98586.19;;;19.56;59.62
74936;BME280;63501;55.570;37.488;2023-07-09T04:05:41;98589.72;;;19.75;58.34
74936;BME280;63501;55.570;37.488;2023-07-09T04:08:08;98597.28;;;19.93;58.14
74936;BME280;63501;55.570;37.488;2023-07-09T04:10:35;98593.13;;;20.12;57.86
74936;BME280;63501;55.570;37.488;2023-07-09T04:13:04;98592.22;;;20.30;56.99
74936;BME280;63501;55.570;37.488;2023-07-09T04:15:31;98583.72;;;20.48;55.76
74936;BME280;63501;55.570;37.488;2023-07-09T04:17:59;98586.84;;;20.65;55.58
74936;BME280;63501;55.570;37.488;2023-07-09T04:20:26;98577.28;;;20.86;55.73
74936;BME280;63501;55.570;37.488;2023-07-09T04:22:53;98581.38;;;21.00;54.56
74936;BME280;63501;55.570;37.488;2023-07-09T04:25:20;98575.75;;;21.15;54.15
74936;BME280;63501;55.570;37.488;2023-07-09T04:27:48;98581.00;;;21.22;53.23
74936;BME280;63501;55.570;37.488;2023-07-09T04:30:17;98575.94;;;21.26;52.54
74936;BME280;63501;55.570;37.488;2023-07-09T04:32:45;98574.59;;;21.36;52.13
74936;BME280;63501;55.570;37.488;2023-07-09T04:35:14;98572.28;;;21.50;51.95
74936;BME280;63501;55.570;37.488;2023-07-09T04:37:42;98569.84;;;21.57;51.81
74936;BME280;63501;55.570;37.488;2023-07-09T04:40:10;98570.59;;;21.58;51.24
74936;BME280;63501;55.570;37.488;2023-07-09T04:42:38;98582.34;;;21.56;50.94
74936;BME280;63501;55.570;37.488;2023-07-09T04:45:07;98567.28;;;21.59;49.98
74936;BME280;63501;55.570;37.488;2023-07-09T04:47:37;98572.22;;;21.64;49.36
74936;BME280;63501;55.570;37.488;2023-07-09T04:50:06;98569.91;;;21.78;48.96
74936;BME280;63501;55.570;37.488;2023-07-09T04:52:34;98568.00;;;21.89;48.78
74936;BME280;63501;55.570;37.488;2023-07-09T04:55:01;98567.09;;;21.98;49.13
74936;BME280;63501;55.570;37.488;2023-07-09T04:57:29;98562.81;;;22.03;48.83
74936;BME280;63501;55.570;37.488;2023-07-09T04:59:56;98564.44;;;22.09;48.09
74936;BME280;63501;55.570;37.488;2023-07-09T05:02:23;98562.50;;;22.15;48.00
74936;BME280;63501;55.570;37.488;2023-07-09T05:04:52;98558.72;;;22.18;47.32
74936;BME280;63501;55.570;37.488;2023-07-09T05:07:20;98567.34;;;22.15;46.86
74936;BME280;63501;55.570;37.488;2023-07-09T05:09:47;98568.34;;;22.12;46.81
74936;BME280;63501;55.570;37.488;2023-07-09T05:12:14;98561.63;;;22.09;46.82
74936;BME280;63501;55.570;37.488;2023-07-09T05:14:42;98564.53;;;22.15;46.42
74936;BME280;63501;55.570;37.488;2023-07-09T05:17:09;98564.59;;;22.21;46.65
74936;BME280;63501;55.570;37.488;2023-07-09T05:19:36;98564.09;;;22.22;45.79
74936;BME280;63501;55.570;37.488;2023-07-09T05:22:05;98557.50;;;22.25;45.42
74936;BME280;63501;55.570;37.488;2023-07-09T05:24:32;98563.72;;;22.29;45.24
74936;BME280;63501;55.570;37.488;2023-07-09T05:26:59;98558.34;;;22.31;44.95
74936;BME280;63501;55.570;37.488;2023-07-09T05:29:26;98563.72;;;22.29;45.00
74936;BME280;63501;55.570;37.488;2023-07-09T05:31:53;98564.41;;;22.24;44.64
74936;BME280;63501;55.570;37.488;2023-07-09T05:34:20;98570.75;;;22.19;45.18
74936;BME280;63501;55.570;37.488;2023-07-09T05:36:47;98559.31;;;22.08;45.67
74936;BME280;63501;55.570;37.488;2023-07-09T05:39:16;98563.78;;;22.00;45.50
74936;BME280;63501;55.570;37.488;2023-07-09T05:41:43;98560.41;;;21.96;45.84
74936;BME280;63501;55.570;37.488;2023-07-09T05:44:10;98566.13;;;22.01;45.84
74936;BME280;63501;55.570;37.488;2023-07-09T05:46:37;98568.81;;;22.10;45.69
74936;BME280;63501;55.570;37.488;2023-07-09T05:49:06;98558.22;;;22.20;45.29
74936;BME280;63501;55.570;37.488;2023-07-09T05:51:33;98557.84;;;22.33;45.70
74936;BME280;63501;55.570;37.488;2023-07-09T05:54:00;98559.56;;;22.45;45.71
74936;BME280;63501;55.570;37.488;2023-07-09T05:56:29;98562.50;;;22.56;45.64
74936;BME280;63501;55.570;37.488;2023-07-09T05:58:56;98555.88;;;22.59;45.26
74936;BME280;63501;55.570;37.488;2023-07-09T06:01:24;98561.28;;;22.63;45.34
74936;BME280;63501;55.570;37.488;2023-07-09T06:03:52;98557.47;;;22.66;45.05
74936;BME280;63501;55.570;37.488;2023-07-09T06:06:19;98560.78;;;22.64;44.78
74936;BME280;63501;55.570;37.488;2023-07-09T06:08:47;98558.75;;;22.65;45.20
74936;BME280;63501;55.570;37.488;2023-07-09T06:11:15;98559.50;;;22.65;44.60
74936;BME280;63501;55.570;37.488;2023-07-09T06:13:46;98549.72;;;22.61;44.19
74936;BME280;63501;55.570;37.488;2023-07-09T06:16:13;98555.53;;;22.52;44.05
74936;BME280;63501;55.570;37.488;2023-07-09T06:18:40;98554.81;;;22.57;43.82
74936;BME280;63501;55.570;37.488;2023-07-09T06:21:08;98554.44;;;22.69;43.94
74936;BME280;63501;55.570;37.488;2023-07-09T06:23:37;98552.72;;;22.78;43.42
74936;BME280;63501;55.570;37.488;2023-07-09T06:26:04;98556.03;;;22.76;43.51
74936;BME280;63501;55.570;37.488;2023-07-09T06:28:32;98550.84;;;22.69;43.48
74936;BME280;63501;55.570;37.488;2023-07-09T06:31:01;98555.53;;;22.52;43.47
74936;BME280;63501;55.570;37.488;2023-07-09T06:33:28;98563.06;;;22.40;43.42
74936;BME280;63501;55.570;37.488;2023-07-09T06:35:57;98551.75;;;22.34;43.91
74936;BME280;63501;55.570;37.488;2023-07-09T06:38:24;98553.50;;;22.32;44.24
74936;BME280;63501;55.570;37.488;2023-07-09T06:40:52;98547.34;;;22.33;44.93
74936;BME280;63501;55.570;37.488;2023-07-09T06:43:20;98552.00;;;22.36;43.95
74936;BME280;63501;55.570;37.488;2023-07-09T06:45:51;98547.16;;;22.37;44.21
74936;BME280;63501;55.570;37.488;2023-07-09T06:48:21;98539.53;;;22.43;43.72
74936;BME280;63501;55.570;37.488;2023-07-09T06:50:49;98546.06;;;22.55;43.62
74936;BME280;63501;55.570;37.488;2023-07-09T06:53:16;98536.47;;;22.67;43.49
74936;BME280;63501;55.570;37.488;2023-07-09T06:55:43;98529.91;;;22.76;43.37
74936;BME280;63501;55.570;37.488;2023-07-09T06:58:10;98532.38;;;22.88;43.16
74936;BME280;63501;55.570;37.488;2023-07-09T07:00:37;98544.03;;;23.02;43.09
74936;BME280;63501;55.570;37.488;2023-07-09T07:03:05;98529.59;;;23.20;42.76
74936;BME280;63501;55.570;37.488;2023-07-09T07:05:34;98528.44;;;23.38;42.04
74936;BME280;63501;55.570;37.488;2023-07-09T07:08:02;98530.06;;;23.50;41.79
74936;BME280;63501;55.570;37.488;2023-07-09T07:10:30;98519.03;;;23.46;41.59
74936;BME280;63501;55.570;37.488;2023-07-09T07:12:57;98515.47;;;23.52;41.25
74936;BME280;63501;55.570;37.488;2023-07-09T07:15:24;98519.19;;;23.63;41.19
74936;BME280;63501;55.570;37.488;2023-07-09T07:17:51;98516.28;;;23.58;41.08
74936;BME280;63501;55.570;37.488;2023-07-09T07:20:18;98526.75;;;23.52;40.81
74936;BME280;63501;55.570;37.488;2023-07-09T07:22:47;98517.03;;;23.53;40.31
74936;BME280;63501;55.570;37.488;2023-07-09T07:25:14;98515.06;;;23.64;40.12
74936;BME280;63501;55.570;37.488;2023-07-09T07:27:42;98518.53;;;23.85;40.14
74936;BME280;63501;55.570;37.488;2023-07-09T07:30:09;98519.09;;;23.95;39.97
74936;BME280;63501;55.570;37.488;2023-07-09T07:32:38;98515.75;;;23.91;39.54
74936;BME280;63501;55.570;37.488;2023-07-09T07:35:06;98509.06;;;23.94;39.41
74936;BME280;63501;55.570;37.488;2023-07-09T07:37:33;98513.44;;;23.95;39.60
74936;BME280;63501;55.570;37.488;2023-07-09T07:40:01;98505.06;;;24.17;39.08
74936;BME280;63501;55.570;37.488;2023-07-09T07:42:30;98504.19;;;24.48;38.72
74936;BME280;63501;55.570;37.488;2023-07-09T07:44:57;98504.25;;;24.76;37.81
74936;BME280;63501;55.570;37.488;2023-07-09T07:47:25;98503.72;;;24.78;37.99
74936;BME280;63501;55.570;37.488;2023-07-09T07:49:53;98503.72;;;24.78;38.20
74936;BME280;63501;55.570;37.488;2023-07-09T07:52:20;98496.03;;;24.84;38.14
74936;BME280;63501;55.570;37.488;2023-07-09T07:54:47;98506.56;;;24.89;38.09
74936;BME280;63501;55.570;37.488;2023-07-09T07:57:17;98491.19;;;25.07;37.74
74936;BME280;63501;55.570;37.488;2023-07-09T07:59:44;98493.53;;;25.20;37.95
74936;BME280;63501;55.570;37.488;2023-07-09T08:02:13;98496.06;;;25.35;37.82
74936;BME280;63501;55.570;37.488;2023-07-09T08:04:41;98492.22;;;25.43;37.58
74936;BME280;63501;55.570;37.488;2023-07-09T08:07:09;98494.28;;;25.37;37.22
74936;BME280;63501;55.570;37.488;2023-07-09T08:09:37;98493.00;;;25.16;37.79
74936;BME280;63501;55.570;37.488;2023-07-09T08:12:05;98500.41;;;24.96;37.96
74936;BME280;63501;55.570;37.488;2023-07-09T08:14:39;98497.84;;;24.98;38.09
74936;BME280;63501;55.570;37.488;2023-07-09T08:17:07;98490.94;;;25.11;38.20
74936;BME280;63501;55.570;37.488;2023-07-09T08:19:44;98495.81;;;25.27;38.02
74936;BME280;63501;55.570;37.488;2023-07-09T08:22:11;98493.22;;;25.40;37.37
74936;BME280;63501;55.570;37.488;2023-07-09T08:24:38;98487.56;;;25.40;37.06
74936;BME280;63501;55.570;37.488;2023-07-09T08:27:06;98484.22;;;25.36;37.49
74936;BME280;63501;55.570;37.488;2023-07-09T08:29:34;98492.72;;;25.25;36.97
74936;BME280;63501;55.570;37.488;2023-07-09T08:32:03;98485.03;;;25.20;37.50
74936;BME280;63501;55.570;37.488;2023-07-09T08:34:30;98482.19;;;25.03;37.05
74936;BME280;63501;55.570;37.488;2023-07-09T08:36:57;98478.81;;;24.82;37.05
74936;BME280;63501;55.570;37.488;2023-07-09T08:39:24;98470.56;;;24.62;37.12
74936;BME280;63501;55.570;37.488;2023-07-09T08:41:54;98464.13;;;24.61;36.74
74936;BME280;63501;55.570;37.488;2023-07-09T08:44:39;98466.72;;;24.70;37.08
74936;BME280;63501;55.570;37.488;2023-07-09T08:47:14;98468.28;;;24.77;37.06
74936;BME280;63501;55.570;37.488;2023-07-09T08:49:46;98466.47;;;24.85;36.88
74936;BME280;63501;55.570;37.488;2023-07-09T08:52:21;98461.38;;;25.06;37.02
74936;BME280;63501;55.570;37.488;2023-07-09T08:54:52;98453.09;;;25.36;36.08
74936;BME280;63501;55.570;37.488;2023-07-09T08:57:23;98458.47;;;25.62;35.60
74936;BME280;63501;55.570;37.488;2023-07-09T08:59:53;98449.69;;;25.71;34.87
74936;BME280;63501;55.570;37.488;2023-07-09T09:02:31;98443.53;;;25.67;34.40
74936;BME280;63501;55.570;37.488;2023-07-09T09:05:00;98449.03;;;26.12;34.42
74936;BME280;63501;55.570;37.488;2023-07-09T09:07:39;98422.16;;;29.25;31.36
74936;BME280;63501;55.570;37.488;2023-07-09T09:10:11;98410.94;;;31.88;28.38
74936;BME280;63501;55.570;37.488;2023-07-09T09:12:56;98405.59;;;33.10;26.95
74936;BME280;63501;55.570;37.488;2023-07-09T09:15:26;98381.09;;;36.64;23.46
74936;BME280;63501;55.570;37.488;2023-07-09T09:17:57;98356.00;;;40.04;21.03
74936;BME280;63501;55.570;37.488;2023-07-09T09:20:26;98326.50;;;42.88;18.35
74936;BME280;63501;55.570;37.488;2023-07-09T09:22:58;98342.22;;;42.30;17.83
74936;BME280;63501;55.570;37.488;2023-07-09T09:25:40;98355.13;;;39.16;19.56
74936;BME280;63501;55.570;37.488;2023-07-09T09:28:08;98367.78;;;36.15;21.75
74936;BME280;63501;55.570;37.488;2023-07-09T09:30:35;98377.63;;;35.60;22.38
74936;BME280;63501;55.570;37.488;2023-07-09T09:33:07;98355.16;;;38.85;20.42
74936;BME280;63501;55.570;37.488;2023-07-09T09:35:35;98323.72;;;42.62;18.02
74936;BME280;63501;55.570;37.488;2023-07-09T09:38:10;98309.88;;;45.98;15.86
74936;BME280;63501;55.570;37.488;2023-07-09T09:40:38;98296.63;;;48.18;14.01
74936;BME280;63501;55.570;37.488;2023-07-09T09:43:12;98293.69;;;49.18;13.28
74936;BME280;63501;55.570;37.488;2023-07-09T09:45:42;98287.09;;;50.06;13.08
74936;BME280;63501;55.570;37.488;2023-07-09T09:48:15;98283.63;;;51.58;12.29
74936;BME280;63501;55.570;37.488;2023-07-09T09:50:44;98272.28;;;52.96;11.25
74936;BME280;63501;55.570;37.488;2023-07-09T09:53:18;98275.69;;;52.72;10.88
74936;BME280;63501;55.570;37.488;2023-07-09T09:55:47;98273.91;;;52.48;11.16
74936;BME280;63501;55.570;37.488;2023-07-09T09:58:16;98267.38;;;53.19;10.95
74936;BME280;63501;55.570;37.488;2023-07-09T10:00:49;98283.94;;;50.62;11.91
74936;BME280;63501;55.570;37.488;2023-07-09T10:03:19;98297.88;;;48.35;12.90
74936;BME280;63501;55.570;37.488;2023-07-09T10:05:51;98314.22;;;46.15;14.01
74936;BME280;63501;55.570;37.488;2023-07-09T10:08:29;98310.97;;;46.82;14.00
74936;BME280;63501;55.570;37.488;2023-07-09T10:11:16;98303.03;;;49.10;12.72
74936;BME280;63501;55.570;37.488;2023-07-09T10:13:46;98291.06;;;50.50;11.57
74936;BME280;63501;55.570;37.488;2023-07-09T10:16:20;98285.63;;;49.18;12.37
74936;BME280;63501;55.570;37.488;2023-07-09T10:18:54;98304.00;;;47.75;13.22
74936;BME280;63501;55.570;37.488;2023-07-09T10:21:27;98328.13;;;44.19;14.55
74936;BME280;63501;55.570;37.488;2023-07-09T10:24:10;98351.56;;;39.91;16.84
74936;BME280;63501;55.570;37.488;2023-07-09T10:26:46;98369.00;;;36.66;19.59
74936;BME280;63501;55.570;37.488;2023-07-09T10:32:30;98363.56;;;35.46;20.36
74936;BME280;63501;55.570;37.488;2023-07-09T10:35:04;98354.41;;;37.56;19.23
74936;BME280;63501;55.570;37.488;2023-07-09T10:37:55;98335.38;;;39.55;17.91
74936;BME280;63501;55.570;37.488;2023-07-09T10:40:28;98323.56;;;41.09;16.77
74936;BME280;63501;55.570;37.488;2023-07-09T10:43:00;98319.34;;;41.36;16.47
74936;BME280;63501;55.570;37.488;2023-07-09T10:45:30;98326.25;;;40.13;17.53
74936;BME280;63501;55.570;37.488;2023-07-09T10:48:02;98325.16;;;39.97;17.59
74936;BME280;63501;55.570;37.488;2023-07-09T10:50:34;98332.09;;;39.49;18.09
74936;BME280;63501;55.570;37.488;2023-07-09T10:53:07;98337.72;;;37.94;19.50
74936;BME280;63501;55.570;37.488;2023-07-09T10:55:41;98349.66;;;36.22;20.52
74936;BME280;63501;55.570;37.488;2023-07-09T10:58:21;98352.97;;;34.57;22.08
74936;BME280;63501;55.570;37.488;2023-07-09T11:00:50;98354.19;;;33.27;22.67
74936;BME280;63501;55.570;37.488;2023-07-09T11:03:26;98370.03;;;32.00;24.21
74936;BME280;63501;55.570;37.488;2023-07-09T11:06:00;98374.94;;;31.06;24.85
74936;BME280;63501;55.570;37.488;2023-07-09T11:08:33;98381.28;;;30.50;25.45
74936;BME280;63501;55.570;37.488;2023-07-09T11:11:04;98382.25;;;30.05;26.05
74936;BME280;63501;55.570;37.488;2023-07-09T11:13:37;98386.44;;;29.51;26.75
74936;BME280;63501;55.570;37.488;2023-07-09T11:16:06;98387.78;;;29.37;27.41
74936;BME280;63501;55.570;37.488;2023-07-09T11:18:36;98385.78;;;29.18;27.47
74936;BME280;63501;55.570;37.488;2023-07-09T11:21:07;98386.00;;;29.20;27.71
74936;BME280;63501;55.570;37.488;2023-07-09T11:23:43;98375.28;;;29.93;27.01
74936;BME280;63501;55.570;37.488;2023-07-09T11:26:12;98360.72;;;31.35;25.92
74936;BME280;63501;55.570;37.488;2023-07-09T11:28:41;98349.94;;;33.66;23.78
74936;BME280;63501;55.570;37.488;2023-07-09T11:31:21;98333.41;;;36.17;22.30
74936;BME280;63501;55.570;37.488;2023-07-09T11:33:56;98322.41;;;37.72;20.30
74936;BME280;63501;55.570;37.488;2023-07-09T11:36:28;98311.22;;;39.08;19.60
74936;BME280;63501;55.570;37.488;2023-07-09T11:38:55;98305.09;;;40.23;19.04
74936;BME280;63501;55.570;37.488;2023-07-09T11:41:38;98297.31;;;41.68;17.47
74936;BME280;63501;55.570;37.488;2023-07-09T11:44:14;98287.88;;;42.71;17.31
74936;BME280;63501;55.570;37.488;2023-07-09T11:46:52;98289.94;;;43.97;16.22
74936;BME280;63501;55.570;37.488;2023-07-09T11:49:23;98281.84;;;43.95;15.90
74936;BME280;63501;55.570;37.488;2023-07-09T11:51:57;98293.59;;;42.30;16.51
74936;BME280;63501;55.570;37.488;2023-07-09T11:54:26;98310.91;;;40.46;17.92
74936;BME280;63501;55.570;37.488;2023-07-09T11:56:54;98309.06;;;40.62;18.04
74936;BME280;63501;55.570;37.488;2023-07-09T11:59:21;98295.34;;;40.98;17.64
74936;BME280;63501;55.570;37.488;2023-07-09T12:01:48;98301.00;;;41.19;17.64
74936;BME280;63501;55.570;37.488;2023-07-09T12:04:18;98287.03;;;41.53;17.01
74936;BME280;63501;55.570;37.488;2023-07-09T12:06:46;98282.75;;;42.05;16.78
74936;BME280;63501;55.570;37.488;2023-07-09T12:09:16;98273.94;;;42.56;16.97
74936;BME280;63501;55.570;37.488;2023-07-09T12:11:44;98274.19;;;42.60;16.16
74936;BME280;63501;55.570;37.488;2023-07-09T12:14:14;98286.53;;;40.61;17.72
74936;BME280;63501;55.570;37.488;2023-07-09T12:16:43;98300.72;;;38.41;18.81
74936;BME280;63501;55.570;37.488;2023-07-09T12:19:12;98316.88;;;37.18;20.10
74936;BME280;63501;55.570;37.488;2023-07-09T12:21:41;98313.66;;;36.03;21.10
74936;BME280;63501;55.570;37.488;2023-07-09T12:24:19;98315.72;;;34.99;21.61
74936;BME280;63501;55.570;37.488;2023-07-09T12:26:51;98321.13;;;34.37;22.31
74936;BME280;63501;55.570;37.488;2023-07-09T12:29:18;98315.97;;;34.68;22.25
74936;BME280;63501;55.570;37.488;2023-07-09T12:31:45;98315.44;;;34.87;21.61
74936;BME280;63501;55.570;37.488;2023-07-09T12:34:14;98316.91;;;34.38;22.58
74936;BME280;63501;55.570;37.488;2023-07-09T12:36:45;98316.38;;;34.00;22.57
74936;BME280;63501;55.570;37.488;2023-07-09T12:39:15;98320.56;;;33.58;22.93
74936;BME280;63501;55.570;37.488;2023-07-09T12:41:45;98318.88;;;33.32;23.17
74936;BME280;63501;55.570;37.488;2023-07-09T12:44:17;98313.31;;;33.57;23.20
74936;BME280;63501;55.570;37.488;2023-07-09T12:46:45;98314.38;;;34.17;22.44
74936;BME280;63501;55.570;37.488;2023-07-09T12:49:21;98310.72;;;34.57;22.14
74936;BME280;63501;55.570;37.488;2023-07-09T12:51:48;98313.50;;;34.32;22.31
74936;BME280;63501;55.570;37.488;2023-07-09T12:54:17;98315.09;;;34.26;22.40
74936;BME280;63501;55.570;37.488;2023-07-09T12:56:49;98302.59;;;35.13;22.32
74936;BME280;63501;55.570;37.488;2023-07-09T12:59:19;98302.53;;;36.44;20.78
74936;BME280;63501;55.570;37.488;2023-07-09T13:01:55;98298.78;;;36.88;20.96
74936;BME280;63501;55.570;37.488;2023-07-09T13:04:28;98286.56;;;36.80;20.88
74936;BME280;63501;55.570;37.488;2023-07-09T13:06:56;98295.72;;;36.49;21.32
74936;BME280;63501;55.570;37.488;2023-07-09T13:09:26;98289.59;;;37.57;20.66